Time;durP1;ratioP1;P1;durP2;ratioP2;P2;SDS_P1;SDS_P2;PMS_P1;PMS_P2;Temp;Humidity;BMP_temperature;BMP_pressure;BME280_temperature;BME280_humidity;BME280_pressure;Samples;Min_cycle;Max_cycle;Signal;HPM_P1;HPM_P2
2022/08/28 00:01:47;;;;;;;2.72;1.80;;;;;;;19.45;92.97;101652.44;20714418;28;20049;-73
2022/08/28 00:11:49;;;;;;;3.17;1.70;;;;;;;19.45;93.07;101655.16;20725102;28;20510;-74
2022/08/28 00:21:51;;;;;;;4.43;2.08;;;;;;;19.30;92.95;101640.22;20717287;28;20076;-74
2022/08/28 00:31:54;;;;;;;2.30;1.48;;;;;;;19.35;92.82;101641.56;20688626;28;20170;-75
2022/08/28 00:41:56;;;;;;;3.03;1.90;;;;;;;19.38;92.57;101640.41;20713208;28;20434;-74
2022/08/28 00:52:14;;;;;;;3.72;2.13;;;;;;;19.43;92.50;101640.88;20712803;28;20525;-74
2022/08/28 01:02:16;;;;;;;3.40;1.83;;;;;;;19.42;92.42;101639.19;20710147;28;20046;-74
2022/08/28 01:12:24;;;;;;;3.28;2.05;;;;;;;19.42;92.28;101641.88;20716576;28;20403;-74
2022/08/28 01:22:39;;;;;;;2.78;1.77;;;;;;;19.32;92.18;101616.63;20694364;28;20062;-74
2022/08/28 01:32:46;;;;;;;3.50;1.70;;;;;;;19.37;91.99;101627.91;20710920;28;20042;-74
2022/08/28 01:42:49;;;;;;;2.95;1.63;;;;;;;19.34;91.69;101622.78;20780174;28;20287;-74
2022/08/28 01:52:50;;;;;;;2.85;1.67;;;;;;;19.39;91.73;101636.75;20771725;28;20049;-74
2022/08/28 02:02:54;;;;;;;1.92;1.40;;;;;;;19.39;91.45;101636.75;20782368;28;20397;-74
2022/08/28 02:12:56;;;;;;;3.87;1.70;;;;;;;19.38;91.35;101645.81;20780412;28;20096;-75
2022/08/28 02:23:00;;;;;;;2.70;1.50;;;;;;;19.37;91.27;101650.38;20775704;28;20141;-74
2022/08/28 02:33:01;;;;;;;2.33;1.52;;;;;;;19.38;90.80;101659.31;20684835;28;20139;-74
2022/08/28 02:43:04;;;;;;;3.03;1.85;;;;;;;19.38;90.69;101648.53;20706478;28;20061;-74
2022/08/28 02:53:06;;;;;;;3.47;1.60;;;;;;;19.21;90.81;101618.41;20698888;28;20053;-74
2022/08/28 03:03:08;;;;;;;2.05;1.30;;;;;;;19.35;90.68;101654.19;20702729;28;20054;-74
2022/08/28 03:13:10;;;;;;;2.25;1.60;;;;;;;19.34;90.65;101657.88;20713802;28;20069;-74
2022/08/28 03:23:26;;;;;;;3.03;1.50;;;;;;;19.16;90.13;101626.03;20675918;28;20049;-74
2022/08/28 03:33:27;;;;;;;2.43;1.40;;;;;;;18.94;90.24;101595.38;20671478;28;20510;-75
2022/08/28 03:43:30;;;;;;;2.47;1.58;;;;;;;19.25;90.10;101673.00;20677166;28;20057;-75
2022/08/28 03:53:32;;;;;;;2.72;1.25;;;;;;;19.33;90.01;101669.66;20688352;28;20127;-75
2022/08/28 04:03:34;;;;;;;2.75;1.40;;;;;;;19.31;90.11;101672.50;20690274;28;20133;-75
2022/08/28 04:13:35;;;;;;;3.25;1.50;;;;;;;19.24;89.45;101672.13;20692976;28;20050;-75
2022/08/28 04:23:42;;;;;;;1.73;1.33;;;;;;;19.31;89.42;101687.81;20698014;28;20061;-74
2022/08/28 04:33:43;;;;;;;2.45;1.33;;;;;;;19.31;89.09;101682.41;20694011;28;20049;-74
2022/08/28 04:43:45;;;;;;;1.83;1.33;;;;;;;19.13;89.03;101669.47;20708951;28;20100;-74
2022/08/28 04:53:47;;;;;;;2.25;1.40;;;;;;;19.22;89.09;101692.13;20704545;28;20068;-74
2022/08/28 05:03:53;;;;;;;3.15;1.45;;;;;;;19.20;89.04;101689.56;20714580;28;20056;-74
2022/08/28 05:13:55;;;;;;;2.13;1.25;;;;;;;19.26;88.65;101707.97;20719020;28;20054;-74
2022/08/28 05:23:56;;;;;;;1.55;1.08;;;;;;;19.27;88.36;101711.53;20677801;28;20053;-74
2022/08/28 05:34:03;;;;;;;1.50;1.15;;;;;;;19.26;88.25;101710.66;20711172;28;20041;-74
2022/08/28 05:44:09;;;;;;;1.75;1.17;;;;;;;19.26;88.13;101724.16;20727030;28;20573;-74
2022/08/28 05:54:11;;;;;;;1.73;1.23;;;;;;;19.10;88.05;101702.94;20693181;28;20111;-74
2022/08/28 06:04:16;;;;;;;1.40;0.90;;;;;;;19.18;87.93;101717.66;20718214;28;20221;-74
2022/08/28 06:14:19;;;;;;;1.38;1.00;;;;;;;19.26;87.43;101737.66;20697338;28;20383;-74
2022/08/28 06:24:21;;;;;;;2.67;1.33;;;;;;;19.26;87.38;101726.00;20704751;28;20068;-74
2022/08/28 06:34:23;;;;;;;2.25;1.10;;;;;;;19.25;87.36;101738.63;20692059;28;20038;-74
2022/08/28 06:44:24;;;;;;;1.95;1.00;;;;;;;19.22;87.23;101738.00;20703576;28;20073;-74
2022/08/28 06:54:29;;;;;;;2.33;1.10;;;;;;;19.25;87.16;101744.03;20696135;28;20065;-74
2022/08/28 07:04:31;;;;;;;2.08;1.00;;;;;;;19.27;87.42;101747.47;20696311;28;20100;-74
2022/08/28 07:14:32;;;;;;;5.20;1.27;;;;;;;19.28;87.23;101742.94;20699088;28;20127;-74
2022/08/28 07:24:34;;;;;;;2.47;0.98;;;;;;;19.32;86.88;101748.94;20716143;28;20124;-74
2022/08/28 07:34:38;;;;;;;1.00;0.82;;;;;;;19.16;87.44;101733.13;20723705;28;20046;-74
2022/08/28 07:44:50;;;;;;;1.73;1.05;;;;;;;19.32;87.25;101757.91;20787603;28;20060;-74
2022/08/28 07:54:51;;;;;;;2.28;0.90;;;;;;;19.23;87.39;101750.56;20804818;28;20672;-74
2022/08/28 08:04:53;;;;;;;2.28;1.10;;;;;;;19.32;87.40;101759.72;20804297;28;20497;-74
2022/08/28 08:14:55;;;;;;;2.13;1.02;;;;;;;19.33;87.48;101772.25;20767041;28;20059;-75
2022/08/28 08:24:56;;;;;;;1.98;1.00;;;;;;;19.33;87.33;101783.03;20829953;28;20057;-75
2022/08/28 08:34:58;;;;;;;2.03;0.90;;;;;;;19.36;87.30;101791.78;20708580;28;20045;-74
2022/08/28 08:45:03;;;;;;;1.33;0.88;;;;;;;19.40;86.87;101790.53;20693004;28;20062;-74
2022/08/28 08:55:24;;;;;;;2.70;0.80;;;;;;;19.44;86.66;101792.97;20692708;28;20088;-74
2022/08/28 09:05:39;;;;;;;2.33;1.17;;;;;;;19.44;87.28;101791.13;20679137;28;20503;-74
2022/08/28 09:15:43;;;;;;;1.40;1.10;;;;;;;19.55;86.83;101796.53;20689157;28;20056;-73
2022/08/28 09:25:54;;;;;;;2.30;1.25;;;;;;;19.62;85.63;101801.44;20687776;28;20281;-74
2022/08/28 09:36:26;;;;;;;2.05;1.02;;;;;;;19.66;85.16;101800.19;20670485;28;20407;-75
2022/08/28 09:46:30;;;;;;;2.47;1.23;;;;;;;19.65;84.57;101802.00;20688798;28;20136;-75
2022/08/28 09:56:39;;;;;;;3.00;1.08;;;;;;;19.49;84.43;101778.13;20644374;28;20092;-75
2022/08/28 10:06:55;;;;;;;2.40;1.17;;;;;;;19.68;84.24;101801.78;20641650;28;20061;-75
2022/08/28 10:17:10;;;;;;;1.92;1.10;;;;;;;19.55;84.06;101788.44;20774666;28;20493;-74
2022/08/28 10:27:38;;;;;;;3.13;1.15;;;;;;;19.66;84.12;101798.31;20759989;28;20088;-75
2022/08/28 10:38:09;;;;;;;2.28;1.10;;;;;;;19.68;83.94;101806.31;20789524;28;20151;-75
2022/08/28 10:48:21;;;;;;;1.67;1.10;;;;;;;19.69;83.49;101810.75;20711026;28;20300;-75
2022/08/28 10:58:25;;;;;;;2.17;1.15;;;;;;;19.68;83.48;101803.63;20793761;28;20099;-75
2022/08/28 11:08:30;;;;;;;1.47;0.90;;;;;;;19.67;83.27;101796.50;20769249;28;20049;-75
2022/08/28 11:19:09;;;;;;;2.43;1.10;;;;;;;19.68;83.13;101811.72;20670444;28;20076;-75
2022/08/28 11:29:11;;;;;;;2.08;1.10;;;;;;;19.67;83.55;101815.41;20683558;28;20365;-74
2022/08/28 11:39:12;;;;;;;2.42;0.98;;;;;;;19.71;83.46;101812.34;20686627;28;20189;-75
2022/08/28 11:49:26;;;;;;;1.52;1.15;;;;;;;19.73;83.19;101806.78;20692491;28;20054;-75
2022/08/28 11:59:36;;;;;;;2.25;0.82;;;;;;;19.76;83.05;101803.00;20683072;28;20157;-75
2022/08/28 12:09:48;;;;;;;1.92;1.10;;;;;;;19.73;82.84;101823.00;20685888;28;20103;-75
2022/08/28 12:20:31;;;;;;;3.38;1.00;;;;;;;19.79;82.91;101830.59;20696632;28;20049;-75
2022/08/28 12:30:43;;;;;;;1.73;1.05;;;;;;;19.79;82.84;101829.75;20670713;28;20093;-75
2022/08/28 12:40:52;;;;;;;1.65;0.90;;;;;;;19.80;82.80;101818.81;20678437;28;21256;-75
2022/08/28 12:51:18;;;;;;;2.35;1.08;;;;;;;19.81;82.83;101825.94;20735814;28;20073;-75
2022/08/28 13:01:19;;;;;;;1.90;0.95;;;;;;;19.81;83.44;101831.34;20679566;28;20180;-75
2022/08/28 13:11:21;;;;;;;2.92;1.08;;;;;;;19.70;84.01;101820.56;20668277;28;20124;-75
2022/08/28 13:21:27;;;;;;;3.20;1.13;;;;;;;19.81;84.19;101831.34;20713095;28;20583;-76
2022/08/28 13:31:39;;;;;;;1.42;0.80;;;;;;;19.81;84.44;101825.94;20751719;28;20064;-75
2022/08/28 13:41:43;;;;;;;2.05;0.90;;;;;;;19.81;84.51;101828.63;20658642;28;20254;-75
2022/08/28 13:51:44;;;;;;;1.73;0.73;;;;;;;19.81;84.78;101820.53;20644102;28;20057;-75
2022/08/28 14:12:07;;;;;;;3.47;1.20;;;;;;;19.83;84.73;101815.00;20738708;28;20561;-75
2022/08/28 14:22:09;;;;;;;2.13;0.80;;;;;;;19.83;84.87;101815.00;20735940;28;20045;-75
2022/08/28 14:32:10;;;;;;;1.48;0.95;;;;;;;19.77;84.84;101808.25;20741099;28;20147;-75
2022/08/28 14:42:12;;;;;;;1.25;0.88;;;;;;;19.75;85.05;101803.97;20695082;28;20516;-75
2022/08/28 14:52:14;;;;;;;1.90;0.85;;;;;;;19.83;85.27;101817.72;20640341;28;20057;-75
2022/08/28 15:02:15;;;;;;;2.00;0.52;;;;;;;19.82;85.34;101818.69;20698185;28;20045;-74
2022/08/28 15:12:18;;;;;;;1.15;0.77;;;;;;;19.82;84.05;101821.41;20743303;28;20038;-74
2022/08/28 15:22:20;;;;;;;2.67;1.10;;;;;;;19.80;83.85;101824.22;20760768;28;20107;-76
2022/08/28 15:32:28;;;;;;;2.45;1.17;;;;;;;19.81;83.48;101827.78;20756483;28;20045;-75
2022/08/28 15:42:30;;;;;;;2.75;1.42;;;;;;;19.79;83.42;101825.19;20697218;28;20422;-75
2022/08/28 15:52:32;;;;;;;1.52;1.20;;;;;;;19.77;83.53;101829.88;20707333;28;20406;-75
2022/08/28 16:02:33;;;;;;;3.35;1.98;;;;;;;19.77;83.75;101839.84;20750766;28;20049;-75
2022/08/28 16:12:38;;;;;;;2.75;1.35;;;;;;;19.76;83.89;101844.38;20678544;28;20127;-76
2022/08/28 16:22:40;;;;;;;4.53;1.83;;;;;;;19.54;84.11;101800.22;20682166;28;20079;-74
2022/08/28 16:32:42;;;;;;;3.38;1.70;;;;;;;19.76;84.52;101820.06;20702712;28;20049;-74
2022/08/28 16:42:48;;;;;;;3.70;1.70;;;;;;;19.55;84.78;101784.84;20670868;28;20053;-75
2022/08/28 16:52:52;;;;;;;3.28;1.65;;;;;;;19.73;85.01;101820.31;20714949;28;20046;-74
2022/08/28 17:02:54;;;;;;;4.68;1.75;;;;;;;19.73;84.88;101820.31;20654761;28;20058;-75
2022/08/28 17:12:55;;;;;;;3.85;1.50;;;;;;;19.48;84.87;101780.94;20709483;28;20045;-75
2022/08/28 17:22:57;;;;;;;3.03;1.30;;;;;;;19.71;85.26;101819.56;20757363;28;20104;-75
2022/08/28 17:32:59;;;;;;;2.38;1.27;;;;;;;19.55;84.85;101798.34;20726741;28;20143;-75
2022/08/28 17:43:01;;;;;;;2.85;1.30;;;;;;;19.70;85.18;101823.25;20671672;28;20137;-74
2022/08/28 17:53:03;;;;;;;3.25;1.40;;;;;;;19.67;85.94;101823.50;20687913;28;20502;-74
2022/08/28 18:03:06;;;;;;;3.42;1.40;;;;;;;19.65;86.04;101825.47;20657311;28;20053;-74
2022/08/28 18:13:08;;;;;;;1.60;1.27;;;;;;;19.63;85.77;101822.06;20705899;28;20052;-74
2022/08/28 18:23:09;;;;;;;2.30;1.05;;;;;;;19.61;85.46;101835.66;20710791;28;20065;-74
2022/08/28 18:33:12;;;;;;;1.40;0.95;;;;;;;19.59;85.31;101836.78;20710728;28;20050;-74
2022/08/28 18:43:16;;;;;;;2.10;1.13;;;;;;;19.41;85.31;101821.94;20726233;28;20042;-74
2022/08/28 18:53:19;;;;;;;2.60;1.05;;;;;;;19.56;85.21;101848.69;20728191;28;20064;-74
2022/08/28 19:03:21;;;;;;;2.83;1.30;;;;;;;19.48;84.78;101852.03;20727604;28;20050;-74
2022/08/28 19:13:22;;;;;;;2.03;0.88;;;;;;;19.45;84.81;101846.88;20724743;28;20091;-74
2022/08/28 19:23:24;;;;;;;1.45;0.93;;;;;;;19.53;84.67;101860.63;20724265;28;20049;-74
2022/08/28 19:33:25;;;;;;;2.80;1.30;;;;;;;19.52;84.62;101864.31;20707592;28;20069;-74
2022/08/28 19:43:27;;;;;;;6.82;1.63;;;;;;;19.50;84.37;101866.28;20722674;28;20064;-74
2022/08/28 19:53:43;;;;;;;1.85;0.90;;;;;;;19.50;84.49;101871.66;20721807;28;20077;-74
2022/08/28 20:03:45;;;;;;;1.40;0.80;;;;;;;19.49;84.31;101885.28;20723270;28;20050;-74
2022/08/28 20:13:47;;;;;;;1.52;1.15;;;;;;;19.48;84.24;101884.44;20720294;28;20045;-74
2022/08/28 20:23:48;;;;;;;2.40;1.02;;;;;;;19.39;84.17;101882.44;20718001;28;20054;-74
2022/08/28 20:33:50;;;;;;;1.08;0.80;;;;;;;19.47;84.12;101884.56;20720140;28;20522;-74
2022/08/28 20:43:51;;;;;;;2.00;1.10;;;;;;;19.46;84.18;101881.00;20719924;28;20045;-74
2022/08/28 20:53:53;;;;;;;1.98;1.08;;;;;;;19.30;84.34;101861.59;20716866;28;20050;-74
2022/08/28 21:03:54;;;;;;;1.60;1.20;;;;;;;19.16;84.05;101841.09;20716709;28;20049;-74
2022/08/28 21:13:56;;;;;;;2.17;1.08;;;;;;;19.44;83.88;101888.34;20717072;28;20399;-75
2022/08/28 21:23:58;;;;;;;1.83;0.85;;;;;;;19.44;83.85;101882.09;20716175;28;20049;-74
2022/08/28 21:33:59;;;;;;;2.15;1.00;;;;;;;19.43;83.77;101889.31;20715554;28;20054;-77
2022/08/28 21:44:01;;;;;;;1.17;0.70;;;;;;;19.42;83.89;101891.19;20714526;28;20407;-74
2022/08/28 21:54:03;;;;;;;2.05;0.88;;;;;;;19.24;83.87;101876.47;20713142;28;20137;-74
2022/08/28 22:04:05;;;;;;;2.17;1.23;;;;;;;19.36;83.76;101888.09;20712077;28;20042;-74
2022/08/28 22:14:06;;;;;;;1.63;1.20;;;;;;;19.12;83.60;101848.59;20713749;28;20104;-74
2022/08/28 22:24:09;;;;;;;1.95;0.82;;;;;;;19.29;83.75;101895.84;20713232;28;20096;-74
2022/08/28 22:34:10;;;;;;;1.90;1.30;;;;;;;19.41;83.88;101921.00;20710630;28;20514;-74
2022/08/28 22:44:12;;;;;;;1.35;0.90;;;;;;;19.41;83.75;101918.28;20711072;28;20407;-74
2022/08/28 22:54:14;;;;;;;1.40;1.00;;;;;;;19.37;83.85;101908.72;20792915;28;20050;-74
2022/08/28 23:04:16;;;;;;;1.67;1.10;;;;;;;19.38;83.80;101905.91;20793942;28;20107;-74
2022/08/28 23:14:18;;;;;;;1.52;1.10;;;;;;;19.38;83.65;101903.22;20793046;28;20049;-74
2022/08/28 23:24:19;;;;;;;1.27;0.90;;;;;;;19.28;83.78;101886.88;20796774;28;20502;-74
2022/08/28 23:34:21;;;;;;;1.58;0.90;;;;;;;19.38;83.81;101888.84;20806757;28;20053;-75
2022/08/28 23:44:23;;;;;;;1.90;1.17;;;;;;;19.28;83.64;101877.94;20787726;28;20053;-74
2022/08/28 23:54:24;;;;;;;2.05;0.90;;;;;;;19.37;83.75;101882.59;20804912;28;20679;-76
